• Join FlightAware (Why Join?)
  • Login
  • US Flag 
12:50AM EDT


 

Airport Tracker/Info


-or-


 

Live Flight TrackerFlight Track Log ✈ N314K ✈ 17-Jan-2014 ✈ LEMD / MAD - KMVY

Flight Track Log - Related Links

Times and Time Zones

All times are in EST time to prevent confusion due to time zone crossing. See the N314K flight status page for this flight to view local times or setup timezone preferences in your user account.

Time Position Orientation Groundspeed Altitude Reporting Facility
EST Latitude Longitude Course Direction KTS MPH feet Rate Location/Type
03:46PM 41.1728 -72.8100 81° East 198 228 5,500  Level Boston Center
03:47PM 41.1825 -72.7314 81° East 212 244 5,500  Level Boston Center
03:48PM 41.1872 -72.6533 85° East 212 244 5,500 -60 Level Boston Center
03:49PM 41.1922 -72.5753 85° East 212 244 5,400 -60 Descending Boston Center
03:50PM 41.1964 -72.4972 86° East 212 244 5,400 -60 Level Boston Center
03:51PM 41.2142 -72.4053 76° East 214 246 5,300  Descending Boston Center
03:52PM 41.2244 -72.3297 80° East 209 241 5,500 60 Climbing Boston Center
03:53PM 41.2331 -72.2528 82° East 213 245 5,500  Level Boston Center
03:53PM 41.2328 -72.2517 108° East 213 245 5,500 60 Level Boston Center
03:54PM 41.2408 -72.1742 82° East 207 238 5,600  Climbing Boston Center
03:55PM 41.2467 -72.0961 84° East 210 242 5,600  Level Boston Center
03:56PM 41.2533 -72.0239 83° East 214 246 5,600 -120 Level Boston Center
03:56PM 41.2542 -72.0208 70° East 214 246 5,500 -240 Descending Boston Center
03:57PM 41.2633 -71.9358 82° East 215 247 5,400  Descending Boston Center
03:58PM 41.2714 -71.8556 82° East 213 245 5,500  Climbing Boston Center
03:59PM 41.2806 -71.7817 81° East 209 241 5,500  Level Boston Center
03:59PM 41.2808 -71.7800 77° East 209 241 5,500  Level Boston Center
04:00PM 41.2867 -71.7006 84° East 211 243 5,500  Level Boston Center
04:00PM 41.2881 -71.6986 46° Northeast 210 242 5,500  Level Boston Center
04:01PM 41.2942 -71.6231 84° East 211 243 5,500 60 Level Boston Center
04:01PM 41.2964 -71.6217 25° Northeast 210 242 5,600  Climbing Boston Center
04:02PM 41.3067 -71.5442 80° East 214 246 5,500 -60 Descending Boston Center
04:03PM 41.3172 -71.4600 80° East 215 247 5,500  Level Boston Center
04:04PM 41.3244 -71.3822 83° East 214 246 5,500 -180 Level Boston Center
04:05PM 41.3306 -71.3036 84° East 215 247 5,200 -480 Descending Boston Center
04:06PM 41.3386 -71.2144 83° East 225 259 4,600 -540 Descending Boston Center
04:07PM 41.3458 -71.1325 83° East 224 258 4,200 -420 Descending Boston Center
04:08PM 41.3508 -71.0539 85° East 214 246 3,800 -540 Descending Boston Center
04:09PM 41.3628 -70.9739 79° East 205 236 3,200 -540 Descending Boston Center
04:10PM 41.3747 -70.8992 78° East 205 236 2,800 -420 Descending Boston Center
04:11PM 41.3872 -70.8275 77° East 200 230 2,400 -420 Descending Boston Center
04:12PM 41.3978 -70.7550 79° East 201 231 2,000 -540 Descending Boston Center
04:13PM 41.4147 -70.6822 73° East 193 222 1,400 -420 Descending Boston Center
04:14PM 41.4289 -70.6208 73° East 176 203 1,200 -480 Descending Boston Center
04:15PM 41.4128 -70.5939 129° Southeast 130 150 500 -600 Descending Boston Center
04:16PM 41.3922 -70.6156 218° Southwest 111 128 100 -420 Descending Boston Center